Time;durP1;ratioP1;P1;durP2;ratioP2;P2;SDS_P1;SDS_P2;PMS_P1;PMS_P2;Temp;Humidity;BMP_temperature;BMP_pressure;BME280_temperature;BME280_humidity;BME280_pressure;Samples;Min_cycle;Max_cycle;Signal;HPM_P1;HPM_P2
2023/05/19 00:00:02;;;;;;;10.98;4.80;;;10.80;93.70;;;;;;5096300;28;20027;-75
2023/05/19 00:02:32;;;;;;;11.65;4.65;;;10.80;93.80;;;;;;5096536;28;20420;-74
2023/05/19 00:05:00;;;;;;;12.23;5.22;;;10.80;93.90;;;;;;5097715;28;20036;-74
2023/05/19 00:07:30;;;;;;;10.98;4.30;;;10.70;93.30;;;;;;5097695;28;20065;-74
2023/05/19 00:09:56;;;;;;;11.10;4.82;;;10.70;93.20;;;;;;5078366;28;20031;-74
2023/05/19 00:12:22;;;;;;;10.82;4.13;;;10.70;93.30;;;;;;5097848;28;20024;-74
2023/05/19 00:14:48;;;;;;;9.98;3.80;;;10.70;93.40;;;;;;5096596;28;20069;-74
2023/05/19 00:17:15;;;;;;;11.25;3.88;;;10.70;93.50;;;;;;5086974;28;20025;-74
2023/05/19 00:19:41;;;;;;;10.98;3.63;;;10.70;93.20;;;;;;5077234;28;20023;-74
2023/05/19 00:22:07;;;;;;;9.77;3.55;;;10.70;93.20;;;;;;5077122;28;20032;-74
2023/05/19 00:24:33;;;;;;;12.80;3.70;;;10.70;93.60;;;;;;5076053;28;20366;-74
2023/05/19 00:26:58;;;;;;;14.10;4.63;;;10.70;93.50;;;;;;5076882;28;20421;-74
2023/05/19 00:29:27;;;;;;;12.13;4.00;;;10.60;93.50;;;;;;5076921;28;20052;-74
2023/05/19 00:31:53;;;;;;;10.88;4.10;;;10.60;94.20;;;;;;5080449;28;20035;-74
2023/05/19 00:34:19;;;;;;;8.93;3.90;;;10.50;94.20;;;;;;5097077;28;20308;-74
2023/05/19 00:36:44;;;;;;;7.45;3.58;;;10.50;93.80;;;;;;5079190;28;20460;-74
2023/05/19 00:39:10;;;;;;;8.60;3.53;;;10.50;94.10;;;;;;5095866;28;20420;-74
2023/05/19 00:41:35;;;;;;;9.02;3.40;;;10.50;94.20;;;;;;5096978;28;20016;-74
2023/05/19 00:44:01;;;;;;;9.10;3.30;;;10.50;94.40;;;;;;5096087;28;20027;-74
2023/05/19 00:46:27;;;;;;;10.02;3.78;;;10.50;94.70;;;;;;5096794;28;20023;-74
2023/05/19 00:48:52;;;;;;;9.15;3.90;;;10.40;94.40;;;;;;5079160;28;20024;-74
2023/05/19 00:51:18;;;;;;;9.40;3.60;;;10.40;94.00;;;;;;5096789;28;20294;-74
2023/05/19 00:53:47;;;;;;;7.60;3.28;;;10.40;94.50;;;;;;5095692;28;20028;-74
2023/05/19 00:56:15;;;;;;;7.55;3.20;;;10.40;94.90;;;;;;5096648;28;20020;-74
2023/05/19 00:58:41;;;;;;;8.77;3.85;;;10.40;94.80;;;;;;5087279;28;20115;-74
2023/05/19 01:01:07;;;;;;;7.70;3.33;;;10.40;95.20;;;;;;5078461;28;20164;-74
2023/05/19 01:03:34;;;;;;;11.50;4.22;;;10.30;95.20;;;;;;5065080;28;20148;-74
2023/05/19 01:06:03;;;;;;;6.30;3.55;;;10.30;95.30;;;;;;5076284;28;20150;-74
2023/05/19 01:08:34;;;;;;;8.80;3.72;;;10.30;95.00;;;;;;5076388;28;20017;-74
2023/05/19 01:11:00;;;;;;;10.13;3.80;;;10.30;95.00;;;;;;5074965;28;20035;-74
2023/05/19 01:13:27;;;;;;;7.15;3.47;;;10.30;94.90;;;;;;5077734;28;20017;-74
2023/05/19 01:16:01;;;;;;;11.13;3.97;;;10.30;94.90;;;;;;5096559;28;20024;-74
2023/05/19 01:18:38;;;;;;;6.57;3.80;;;10.30;95.00;;;;;;5095340;28;20036;-74
2023/05/19 01:25:05;;;;;;;13.57;4.15;;;10.20;95.20;;;;;;5094543;28;20077;-73
2023/05/19 01:28:05;;;;;;;10.40;4.10;;;10.20;94.90;;;;;;5060039;28;20029;-75
2023/05/19 01:30:39;;;;;;;9.32;4.63;;;10.20;95.10;;;;;;5076053;28;20112;-76
2023/05/19 01:33:08;;;;;;;9.45;3.70;;;10.20;95.20;;;;;;5078043;28;20028;-74
2023/05/19 01:35:38;;;;;;;8.48;4.10;;;10.20;95.60;;;;;;5096052;28;20024;-74
2023/05/19 01:38:08;;;;;;;7.97;3.80;;;10.20;95.10;;;;;;5077189;28;20157;-74
2023/05/19 01:40:37;;;;;;;8.27;3.88;;;10.20;94.60;;;;;;5094198;28;20099;-74
2023/05/19 01:43:03;;;;;;;10.32;4.10;;;10.20;94.70;;;;;;5095931;28;20036;-75
2023/05/19 01:45:31;;;;;;;11.15;4.10;;;10.20;95.00;;;;;;5078123;28;20436;-74
2023/05/19 01:48:00;;;;;;;10.20;4.15;;;10.20;94.70;;;;;;5096090;28;20034;-74
2023/05/19 01:50:26;;;;;;;9.00;4.15;;;10.20;94.70;;;;;;5059310;28;20025;-74
2023/05/19 01:52:52;;;;;;;8.68;4.13;;;10.10;94.60;;;;;;5075819;28;20035;-74
2023/05/19 01:55:19;;;;;;;8.70;3.92;;;10.10;94.90;;;;;;5079182;28;20081;-74
2023/05/19 01:58:17;;;;;;;9.77;3.97;;;10.10;95.00;;;;;;5077951;28;20032;-74
2023/05/19 02:00:58;;;;;;;6.88;3.45;;;10.10;94.20;;;;;;5078132;28;20077;-74
2023/05/19 02:03:45;;;;;;;8.40;3.75;;;10.10;94.60;;;;;;5095919;28;20371;-74
2023/05/19 02:06:51;;;;;;;7.40;3.55;;;10.10;94.80;;;;;;5075653;28;20675;-74
2023/05/19 02:09:33;;;;;;;7.75;3.78;;;10.10;94.80;;;;;;5074383;28;20052;-74
2023/05/19 02:12:23;;;;;;;8.43;3.42;;;10.10;95.10;;;;;;5057708;28;20055;-74
2023/05/19 02:15:03;;;;;;;6.57;3.63;;;10.00;95.10;;;;;;5059299;28;20024;-74
2023/05/19 02:17:40;;;;;;;9.45;3.92;;;10.00;95.30;;;;;;5079487;28;20028;-74
2023/05/19 02:20:08;;;;;;;7.55;3.92;;;10.00;95.30;;;;;;5061739;28;20021;-74
2023/05/19 02:22:34;;;;;;;6.85;4.00;;;10.00;95.50;;;;;;5061580;28;20033;-74
2023/05/19 02:25:00;;;;;;;8.32;3.85;;;9.90;95.30;;;;;;5084641;28;20081;-74
2023/05/19 02:27:26;;;;;;;8.88;4.07;;;9.90;95.40;;;;;;5081470;28;20036;-74
2023/05/19 02:29:52;;;;;;;7.75;4.18;;;9.90;95.40;;;;;;5099549;28;20028;-74
2023/05/19 02:32:20;;;;;;;8.00;4.10;;;9.90;95.40;;;;;;5099570;28;20290;-74
2023/05/19 02:34:46;;;;;;;10.50;3.95;;;9.80;95.60;;;;;;5098373;28;20020;-74
2023/05/19 02:37:13;;;;;;;7.22;4.22;;;9.80;95.40;;;;;;5099417;28;20063;-74
2023/05/19 02:39:42;;;;;;;5.95;3.50;;;9.80;95.70;;;;;;5079373;28;20443;-74
2023/05/19 02:42:08;;;;;;;8.55;4.15;;;9.80;95.90;;;;;;5099259;28;20028;-74
2023/05/19 02:44:34;;;;;;;7.00;4.65;;;9.80;95.90;;;;;;5099474;28;20039;-74
2023/05/19 02:46:59;;;;;;;7.65;4.10;;;9.80;95.90;;;;;;5099043;28;20150;-74
2023/05/19 02:49:25;;;;;;;10.20;4.32;;;9.80;96.10;;;;;;5099282;28;20440;-74
2023/05/19 02:51:50;;;;;;;12.07;5.07;;;9.70;95.70;;;;;;5080019;28;20302;-73
2023/05/19 02:54:16;;;;;;;7.35;4.28;;;9.70;95.90;;;;;;5077550;28;20036;-74
2023/05/19 02:56:42;;;;;;;8.98;4.65;;;9.70;95.90;;;;;;5078870;28;20021;-74
2023/05/19 02:59:07;;;;;;;9.60;4.65;;;9.70;96.40;;;;;;5078620;28;20295;-74
2023/05/19 03:01:33;;;;;;;8.38;4.85;;;9.60;96.00;;;;;;5088895;28;20349;-74
2023/05/19 03:03:58;;;;;;;9.93;5.03;;;9.60;95.90;;;;;;5098948;28;20361;-74
2023/05/19 03:06:24;;;;;;;8.55;4.32;;;9.60;96.10;;;;;;5098473;28;20059;-74
2023/05/19 03:08:50;;;;;;;9.68;4.70;;;9.60;95.80;;;;;;5094045;28;20360;-74
2023/05/19 03:11:16;;;;;;;9.13;4.50;;;9.60;96.00;;;;;;5078402;28;20479;-74
2023/05/19 03:13:41;;;;;;;8.07;4.68;;;9.60;95.90;;;;;;5078505;28;20079;-74
2023/05/19 03:16:07;;;;;;;9.05;4.63;;;9.60;95.80;;;;;;5078408;28;20036;-74
2023/05/19 03:18:36;;;;;;;9.75;4.72;;;9.50;95.90;;;;;;5078308;28;20028;-73
2023/05/19 03:21:02;;;;;;;8.70;4.40;;;9.50;95.80;;;;;;5092778;28;20451;-74
2023/05/19 03:23:28;;;;;;;8.82;4.95;;;9.50;96.10;;;;;;5097663;28;20032;-74
2023/05/19 03:25:54;;;;;;;8.55;4.90;;;9.50;96.30;;;;;;5089633;28;20460;-74
2023/05/19 03:28:22;;;;;;;11.10;5.03;;;9.50;96.30;;;;;;5078080;28;20028;-73
2023/05/19 03:30:49;;;;;;;10.55;4.60;;;9.50;96.10;;;;;;5078090;28;20350;-73
2023/05/19 03:33:15;;;;;;;8.93;5.00;;;9.50;96.10;;;;;;5078230;28;20019;-74
2023/05/19 03:35:40;;;;;;;11.50;4.20;;;9.50;96.30;;;;;;5077324;28;20033;-74
2023/05/19 03:38:06;;;;;;;8.90;4.60;;;9.50;96.10;;;;;;5078043;28;20032;-73
2023/05/19 03:40:32;;;;;;;8.65;4.78;;;9.50;96.10;;;;;;5076804;28;20029;-74
2023/05/19 03:42:59;;;;;;;8.80;4.70;;;9.50;96.30;;;;;;5077919;28;20048;-74
2023/05/19 03:45:25;;;;;;;7.78;4.70;;;9.50;96.30;;;;;;5077862;28;20409;-74
2023/05/19 03:47:50;;;;;;;8.63;4.90;;;9.40;96.30;;;;;;5077833;28;20036;-73
2023/05/19 03:50:16;;;;;;;7.93;4.40;;;9.50;96.00;;;;;;5082859;28;20020;-74
2023/05/19 03:52:44;;;;;;;9.88;4.57;;;9.50;95.80;;;;;;5097976;28;20445;-74
2023/05/19 03:55:10;;;;;;;8.13;4.38;;;9.50;96.40;;;;;;5096034;28;20077;-74
2023/05/19 03:57:36;;;;;;;8.77;4.45;;;9.50;96.10;;;;;;5097959;28;20020;-74
2023/05/19 04:00:04;;;;;;;8.15;3.92;;;9.50;96.20;;;;;;5097607;28;20099;-73
2023/05/19 04:02:30;;;;;;;8.73;4.47;;;9.50;96.20;;;;;;5097797;28;20326;-73
2023/05/19 04:04:56;;;;;;;8.75;4.35;;;9.50;96.30;;;;;;5097516;28;20470;-74
2023/05/19 04:07:22;;;;;;;12.18;4.80;;;9.50;96.10;;;;;;5097671;28;20020;-74
2023/05/19 04:09:48;;;;;;;7.03;3.85;;;9.50;96.40;;;;;;5077932;28;20479;-74
2023/05/19 04:12:14;;;;;;;9.18;4.85;;;9.60;96.40;;;;;;5064342;28;20028;-73
2023/05/19 04:14:43;;;;;;;12.23;6.65;;;9.60;96.40;;;;;;5082014;28;20413;-73
2023/05/19 04:17:08;;;;;;;12.35;4.93;;;9.60;96.10;;;;;;5085372;28;20032;-73
2023/05/19 04:19:34;;;;;;;13.30;5.40;;;9.60;96.30;;;;;;5087651;28;20035;-73
2023/05/19 04:21:59;;;;;;;11.85;6.05;;;9.60;96.20;;;;;;5094910;28;20035;-75
2023/05/19 04:24:25;;;;;;;15.80;6.40;;;9.60;96.20;;;;;;5091698;28;20021;-74
2023/05/19 04:26:52;;;;;;;10.55;5.13;;;9.60;96.30;;;;;;5082535;28;20032;-74
2023/05/19 04:29:17;;;;;;;10.23;5.13;;;9.60;96.30;;;;;;5097080;28;20068;-74
2023/05/19 04:31:44;;;;;;;9.57;5.45;;;9.60;96.00;;;;;;5097180;28;20099;-74
2023/05/19 04:34:10;;;;;;;15.15;5.95;;;9.60;96.50;;;;;;5079334;28;20401;-74
2023/05/19 04:36:36;;;;;;;12.63;5.65;;;9.60;96.30;;;;;;5096886;28;20051;-74
2023/05/19 04:39:06;;;;;;;13.77;5.70;;;9.60;96.50;;;;;;5095850;28;20032;-74
2023/05/19 04:41:34;;;;;;;13.57;6.00;;;9.70;96.50;;;;;;5093921;28;20043;-74
2023/05/19 04:44:00;;;;;;;18.10;6.70;;;9.70;96.30;;;;;;5067593;28;20424;-73
2023/05/19 04:46:26;;;;;;;12.73;5.05;;;9.80;96.40;;;;;;5076913;28;20037;-74
2023/05/19 04:48:54;;;;;;;13.73;5.25;;;9.90;96.30;;;;;;5076555;28;20020;-74
2023/05/19 04:51:19;;;;;;;12.18;5.20;;;10.10;96.00;;;;;;5058830;28;20020;-74
2023/05/19 04:53:45;;;;;;;12.63;5.22;;;10.10;95.90;;;;;;5077586;28;20031;-74
2023/05/19 04:56:13;;;;;;;12.70;5.60;;;10.20;95.40;;;;;;5088230;28;20039;-74
2023/05/19 04:58:40;;;;;;;12.75;5.75;;;10.30;95.30;;;;;;5092791;28;20111;-73
2023/05/19 05:01:08;;;;;;;10.10;5.10;;;10.30;95.00;;;;;;5096515;28;20028;-74
2023/05/19 05:03:34;;;;;;;11.48;5.30;;;10.30;95.50;;;;;;5096066;28;20413;-74
2023/05/19 05:05:59;;;;;;;12.80;4.68;;;10.50;95.00;;;;;;5095884;28;20078;-74
2023/05/19 05:08:25;;;;;;;11.07;5.20;;;10.70;94.60;;;;;;5096517;28;20046;-74
2023/05/19 05:10:52;;;;;;;13.98;5.13;;;10.80;94.60;;;;;;5089059;28;20074;-74
2023/05/19 05:13:22;;;;;;;14.27;5.60;;;10.90;94.20;;;;;;5076262;28;20368;-74
2023/05/19 05:15:49;;;;;;;11.68;5.28;;;11.00;93.90;;;;;;5083387;28;20504;-74
2023/05/19 05:18:15;;;;;;;14.80;5.30;;;11.10;93.80;;;;;;5084774;28;20417;-74
2023/05/19 05:20:42;;;;;;;11.82;5.38;;;11.20;92.70;;;;;;5066913;28;20085;-73
2023/05/19 05:23:08;;;;;;;12.15;5.15;;;11.30;92.20;;;;;;5090901;28;20029;-74
2023/05/19 05:25:35;;;;;;;13.85;5.05;;;11.30;92.30;;;;;;5082738;28;20027;-73
2023/05/19 05:28:03;;;;;;;12.13;5.63;;;11.40;91.70;;;;;;5069776;28;20043;-74
2023/05/19 05:30:31;;;;;;;10.45;5.45;;;11.50;92.00;;;;;;5094170;28;20076;-73
2023/05/19 05:32:57;;;;;;;12.52;5.20;;;11.60;91.40;;;;;;5093775;28;20432;-72
2023/05/19 05:35:23;;;;;;;13.65;5.10;;;11.70;91.70;;;;;;5094632;28;20039;-74
2023/05/19 05:37:48;;;;;;;12.10;4.60;;;11.70;91.40;;;;;;5084803;28;20321;-72
2023/05/19 05:40:14;;;;;;;11.73;4.78;;;11.70;90.80;;;;;;5087989;28;20028;-73
2023/05/19 05:42:40;;;;;;;10.45;4.40;;;11.70;91.10;;;;;;5086566;28;20035;-74
2023/05/19 05:45:07;;;;;;;10.32;3.58;;;11.60;91.00;;;;;;5075301;28;20428;-73
2023/05/19 05:47:36;;;;;;;12.43;4.63;;;11.80;90.60;;;;;;5093556;28;20032;-73
2023/05/19 05:50:08;;;;;;;13.95;4.80;;;12.10;89.60;;;;;;5081411;28;20012;-74
2023/05/19 05:52:36;;;;;;;12.13;4.70;;;12.00;89.50;;;;;;5088382;28;20499;-74
2023/05/19 05:55:02;;;;;;;12.57;4.93;;;12.10;89.60;;;;;;5069302;28;20028;-74
2023/05/19 05:57:29;;;;;;;12.98;4.32;;;12.20;89.90;;;;;;5094814;28;20028;-74
2023/05/19 05:59:55;;;;;;;10.70;4.82;;;12.40;89.30;;;;;;5087807;28;20087;-74
2023/05/19 06:02:21;;;;;;;9.40;4.45;;;12.70;89.00;;;;;;5075769;28;20016;-74
2023/05/19 06:04:46;;;;;;;11.85;4.78;;;12.70;87.90;;;;;;5076616;28;20067;-74
2023/05/19 06:07:12;;;;;;;10.85;5.18;;;12.60;87.90;;;;;;5093414;28;20068;-74
2023/05/19 06:09:37;;;;;;;13.63;4.72;;;12.60;89.40;;;;;;5086765;28;20441;-74
2023/05/19 06:12:03;;;;;;;10.40;4.22;;;12.50;89.40;;;;;;5076847;28;20063;-74
2023/05/19 06:14:29;;;;;;;15.90;5.38;;;12.60;88.90;;;;;;5082508;28;20028;-74
2023/05/19 06:16:54;;;;;;;14.70;5.18;;;12.60;87.70;;;;;;5095628;28;20028;-74
2023/05/19 06:19:20;;;;;;;15.35;5.28;;;12.50;88.80;;;;;;5095805;28;20028;-73
2023/05/19 06:21:46;;;;;;;14.65;5.32;;;12.60;89.60;;;;;;5095837;28;20296;-74
2023/05/19 06:24:11;;;;;;;16.50;5.03;;;12.80;88.40;;;;;;5076556;28;20081;-74
2023/05/19 06:26:37;;;;;;;11.07;4.55;;;12.90;87.40;;;;;;5095723;28;20028;-74
2023/05/19 06:29:03;;;;;;;11.52;4.93;;;13.00;87.70;;;;;;5090657;28;20077;-74
2023/05/19 06:31:28;;;;;;;12.40;4.50;;;13.30;88.00;;;;;;5078625;28;20347;-74
2023/05/19 06:33:56;;;;;;;10.35;4.50;;;13.70;87.30;;;;;;5089319;28;20950;-74
2023/05/19 06:36:26;;;;;;;11.80;4.60;;;13.70;84.90;;;;;;5062317;28;20437;-74
2023/05/19 06:38:52;;;;;;;12.05;4.90;;;13.50;86.10;;;;;;5089439;28;20750;-74
2023/05/19 06:41:17;;;;;;;11.43;4.72;;;13.50;86.40;;;;;;5065574;28;20119;-73
2023/05/19 06:43:43;;;;;;;10.32;4.32;;;13.60;86.90;;;;;;5079664;28;20090;-74
2023/05/19 06:46:09;;;;;;;12.55;4.93;;;13.90;85.30;;;;;;5067472;28;20060;-74
2023/05/19 06:48:35;;;;;;;10.00;4.25;;;13.90;84.80;;;;;;5058757;28;20024;-73
2023/05/19 06:51:00;;;;;;;10.85;3.97;;;13.70;84.80;;;;;;5074916;28;20067;-74
2023/05/19 06:53:26;;;;;;;9.88;4.28;;;13.60;85.70;;;;;;5056999;28;20298;-74
2023/05/19 06:55:51;;;;;;;8.88;4.07;;;13.60;85.60;;;;;;5074216;28;20033;-74
2023/05/19 06:58:17;;;;;;;9.25;4.03;;;13.50;86.30;;;;;;5089031;28;20125;-74
2023/05/19 07:00:42;;;;;;;10.98;3.97;;;13.40;85.70;;;;;;5062666;28;20025;-73
2023/05/19 07:03:08;;;;;;;12.90;4.15;;;13.70;86.20;;;;;;5087501;28;20032;-72
2023/05/19 07:05:34;;;;;;;9.07;3.90;;;13.80;84.30;;;;;;5095777;28;20306;-73
2023/05/19 07:08:00;;;;;;;9.75;4.15;;;13.90;84.90;;;;;;5088429;28;20033;-72
2023/05/19 07:10:26;;;;;;;10.05;3.78;;;13.90;84.10;;;;;;5065538;28;20024;-73
2023/05/19 07:12:51;;;;;;;9.18;4.22;;;13.80;85.10;;;;;;5070626;28;20437;-72
2023/05/19 07:15:17;;;;;;;8.93;3.78;;;13.80;86.30;;;;;;5098304;28;20409;-73
2023/05/19 07:17:43;;;;;;;11.18;4.18;;;13.90;85.30;;;;;;5082296;28;20025;-74
2023/05/19 07:20:09;;;;;;;11.55;4.00;;;14.00;84.90;;;;;;5090809;28;20107;-74
2023/05/19 07:22:35;;;;;;;7.72;3.60;;;14.10;84.90;;;;;;5093148;28;20063;-73
2023/05/19 07:25:01;;;;;;;12.20;3.97;;;14.20;84.60;;;;;;5075599;28;20032;-74
2023/05/19 07:27:26;;;;;;;12.73;4.30;;;14.10;83.90;;;;;;5087902;28;20021;-74
2023/05/19 07:29:52;;;;;;;8.23;3.72;;;14.20;84.90;;;;;;5089214;28;20032;-73
2023/05/19 07:32:18;;;;;;;12.25;4.18;;;14.20;85.40;;;;;;5083269;28;20043;-74
2023/05/19 07:34:43;;;;;;;10.98;3.95;;;14.30;84.30;;;;;;5070372;28;20421;-73
2023/05/19 07:37:11;;;;;;;11.20;3.70;;;14.10;84.50;;;;;;5102523;28;20073;-73
2023/05/19 07:39:37;;;;;;;9.15;3.78;;;14.20;84.40;;;;;;5078799;28;20035;-74
2023/05/19 07:42:03;;;;;;;14.38;4.78;;;14.30;84.70;;;;;;5092674;28;20024;-73
2023/05/19 07:44:30;;;;;;;8.55;3.35;;;14.60;84.50;;;;;;5092036;28;20324;-74
2023/05/19 07:46:57;;;;;;;8.18;3.35;;;14.60;84.00;;;;;;5097763;28;20032;-74
2023/05/19 07:49:24;;;;;;;12.50;4.68;;;14.60;83.90;;;;;;5088298;28;20036;-73
2023/05/19 07:51:50;;;;;;;11.50;3.65;;;14.40;83.40;;;;;;5090031;28;20024;-73
2023/05/19 07:54:16;;;;;;;9.25;3.70;;;14.00;84.40;;;;;;5090788;28;20105;-73
2023/05/19 07:56:41;;;;;;;11.05;4.15;;;14.20;84.80;;;;;;5080908;28;20056;-74
2023/05/19 07:59:07;;;;;;;10.18;4.03;;;14.50;84.10;;;;;;5078646;28;20037;-73
2023/05/19 08:01:33;;;;;;;10.85;4.18;;;14.50;84.30;;;;;;5096075;28;20039;-73
2023/05/19 08:03:58;;;;;;;8.48;3.67;;;14.50;82.00;;;;;;5093373;28;20026;-73
2023/05/19 08:06:24;;;;;;;8.52;4.07;;;14.50;84.10;;;;;;5090510;28;20075;-73
2023/05/19 08:08:50;;;;;;;11.35;4.10;;;14.50;83.00;;;;;;5088791;28;20024;-74
2023/05/19 08:11:32;;;;;;;9.18;3.83;;;14.50;82.50;;;;;;5089902;28;20035;-73
2023/05/19 08:14:00;;;;;;;8.95;3.65;;;14.90;81.80;;;;;;5094221;28;20028;-74
2023/05/19 08:16:26;;;;;;;10.25;3.72;;;15.20;81.70;;;;;;5094047;28;20433;-74
2023/05/19 08:18:59;;;;;;;9.52;3.90;;;15.40;81.20;;;;;;5094742;28;20106;-74
2023/05/19 08:21:25;;;;;;;6.95;3.47;;;15.30;81.00;;;;;;5077169;28;20086;-75
2023/05/19 08:23:50;;;;;;;9.15;3.50;;;15.60;81.50;;;;;;5084422;28;20032;-75
2023/05/19 08:26:16;;;;;;;8.70;3.30;;;15.60;80.30;;;;;;5072282;28;20039;-73
2023/05/19 08:28:43;;;;;;;10.88;3.40;;;15.40;81.20;;;;;;5063551;28;20379;-73
2023/05/19 08:31:08;;;;;;;6.72;3.25;;;15.30;80.70;;;;;;5095227;28;20421;-74
2023/05/19 08:33:49;;;;;;;8.95;3.78;;;15.20;82.00;;;;;;5095030;28;20028;-73
2023/05/19 08:36:15;;;;;;;7.38;3.72;;;15.00;81.20;;;;;;5087862;28;20433;-74
2023/05/19 08:38:41;;;;;;;11.48;3.70;;;14.80;82.10;;;;;;5063482;28;20024;-74
2023/05/19 08:41:07;;;;;;;9.00;3.65;;;14.50;82.20;;;;;;5080186;28;20024;-74
2023/05/19 08:43:33;;;;;;;8.35;3.88;;;14.20;83.60;;;;;;5095369;28;20016;-74
2023/05/19 08:45:59;;;;;;;7.93;3.78;;;14.50;84.20;;;;;;5093945;28;20451;-74
2023/05/19 08:48:28;;;;;;;10.50;3.70;;;14.70;81.90;;;;;;5094895;28;20032;-74
2023/05/19 08:51:21;;;;;;;9.23;4.22;;;14.80;82.60;;;;;;5096715;28;20032;-74
2023/05/19 08:53:52;;;;;;;7.55;3.20;;;14.80;83.10;;;;;;5076184;28;20392;-74
2023/05/19 08:56:22;;;;;;;8.18;3.70;;;15.20;83.40;;;;;;5076486;28;20415;-74
2023/05/19 08:58:49;;;;;;;8.43;3.40;;;15.10;80.70;;;;;;5081219;28;20042;-74
2023/05/19 09:01:16;;;;;;;9.93;4.45;;;14.90;81.70;;;;;;5095581;28;20719;-74
2023/05/19 09:03:44;;;;;;;14.70;5.25;;;14.90;83.10;;;;;;5075380;28;20020;-74
2023/05/19 09:06:12;;;;;;;11.52;5.63;;;14.50;84.50;;;;;;5086003;28;20035;-73
2023/05/19 09:08:39;;;;;;;10.50;5.07;;;14.20;86.50;;;;;;5108611;28;20153;-74
2023/05/19 09:11:05;;;;;;;12.25;4.43;;;14.20;86.50;;;;;;5078994;28;20025;-74
2023/05/19 09:13:33;;;;;;;12.43;5.53;;;14.20;87.10;;;;;;5086990;28;20314;-73
2023/05/19 09:15:59;;;;;;;15.10;5.88;;;14.20;86.00;;;;;;5077838;28;20043;-74
2023/05/19 09:18:25;;;;;;;10.70;4.65;;;14.20;87.30;;;;;;5095652;28;20409;-73
2023/05/19 09:20:59;;;;;;;11.57;5.15;;;14.60;85.60;;;;;;5096419;28;20478;-74
2023/05/19 09:23:29;;;;;;;13.15;4.82;;;15.20;85.10;;;;;;5083049;28;20031;-73
2023/05/19 09:25:56;;;;;;;13.45;5.28;;;15.50;84.00;;;;;;5088899;28;20035;-74
2023/05/19 09:28:30;;;;;;;11.88;4.82;;;15.40;83.20;;;;;;5095673;28;20020;-73
2023/05/19 09:31:11;;;;;;;12.75;4.80;;;15.00;84.90;;;;;;5087478;28;20443;-74
2023/05/19 09:33:41;;;;;;;13.55;5.60;;;14.50;86.20;;;;;;5075947;28;20108;-74
2023/05/19 09:36:15;;;;;;;11.10;4.90;;;14.60;85.40;;;;;;5094336;28;20097;-74
2023/05/19 09:38:41;;;;;;;12.50;5.47;;;14.50;85.50;;;;;;5094932;28;20024;-74
2023/05/19 09:41:08;;;;;;;12.15;5.25;;;14.20;86.20;;;;;;5093310;28;20108;-74
2023/05/19 09:43:34;;;;;;;11.68;5.25;;;13.90;88.00;;;;;;5090516;28;20177;-74
2023/05/19 09:46:08;;;;;;;14.27;5.18;;;13.80;87.90;;;;;;5094636;28;20428;-74
2023/05/19 09:48:35;;;;;;;14.13;6.53;;;13.80;87.80;;;;;;5088741;28;20031;-73
2023/05/19 09:51:04;;;;;;;14.95;6.90;;;13.70;89.00;;;;;;5078483;28;20035;-74
2023/05/19 09:53:31;;;;;;;11.07;6.38;;;13.60;88.00;;;;;;5115313;28;20015;-74
2023/05/19 09:56:01;;;;;;;20.30;6.85;;;13.40;88.70;;;;;;5102180;28;20073;-74
2023/05/19 09:58:33;;;;;;;15.98;6.45;;;13.50;89.10;;;;;;5094231;28;20032;-74
2023/05/19 10:01:00;;;;;;;12.30;5.93;;;13.50;89.00;;;;;;5093504;28;20359;-74
2023/05/19 10:03:27;;;;;;;11.75;5.25;;;13.30;89.50;;;;;;5076921;28;20110;-74
2023/05/19 10:05:53;;;;;;;10.27;5.03;;;13.20;89.60;;;;;;5094610;28;20016;-73
2023/05/19 10:08:20;;;;;;;14.05;5.25;;;13.60;89.80;;;;;;5094889;28;20028;-73
2023/05/19 10:10:46;;;;;;;12.48;4.90;;;13.70;87.80;;;;;;5088068;28;20368;-73
2023/05/19 10:13:13;;;;;;;15.00;6.60;;;13.40;88.60;;;;;;5065866;28;20409;-76
2023/05/19 10:15:42;;;;;;;10.73;5.28;;;13.20;89.70;;;;;;5093854;28;20038;-75
2023/05/19 10:18:09;;;;;;;11.85;6.10;;;12.90;90.40;;;;;;5094835;28;20032;-75
2023/05/19 10:20:36;;;;;;;10.32;4.90;;;12.90;91.10;;;;;;5076715;28;20122;-75
2023/05/19 10:23:02;;;;;;;14.55;5.72;;;13.10;90.60;;;;;;5094350;28;20050;-75
2023/05/19 10:25:31;;;;;;;13.07;5.05;;;13.20;89.60;;;;;;5093174;28;20370;-75
2023/05/19 10:28:13;;;;;;;12.73;5.70;;;13.30;89.00;;;;;;5078957;28;20089;-75
2023/05/19 10:30:43;;;;;;;13.82;5.22;;;13.40;89.40;;;;;;5074454;28;20360;-75
2023/05/19 10:33:13;;;;;;;15.65;5.50;;;13.30;88.70;;;;;;5074364;28;20056;-74
2023/05/19 10:35:58;;;;;;;10.52;5.18;;;13.20;88.90;;;;;;5057256;28;20025;-75
2023/05/19 10:38:32;;;;;;;10.90;5.25;;;13.00;89.80;;;;;;5078166;28;20020;-75
2023/05/19 10:41:10;;;;;;;13.82;4.93;;;13.30;90.00;;;;;;5066833;28;20059;-76
2023/05/19 10:43:57;;;;;;;12.15;5.30;;;13.60;88.50;;;;;;5098367;28;20051;-75
2023/05/19 10:46:25;;;;;;;10.82;5.00;;;13.80;87.60;;;;;;5097934;28;20020;-76
2023/05/19 10:48:51;;;;;;;10.77;4.97;;;14.20;88.10;;;;;;5080242;28;20024;-74
2023/05/19 10:51:16;;;;;;;10.98;4.47;;;14.40;86.00;;;;;;5098056;28;20024;-74
2023/05/19 10:53:45;;;;;;;7.93;4.38;;;14.60;85.90;;;;;;5096929;28;20032;-74
2023/05/19 10:56:27;;;;;;;14.95;4.63;;;14.60;85.30;;;;;;5098171;28;20032;-74
2023/05/19 10:58:53;;;;;;;13.77;5.05;;;14.40;86.50;;;;;;5078175;28;20115;-74
2023/05/19 11:01:20;;;;;;;9.35;4.63;;;14.30;85.50;;;;;;5094754;28;20706;-74
2023/05/19 11:03:48;;;;;;;11.10;5.20;;;14.30;86.30;;;;;;5096677;28;20109;-74
2023/05/19 11:06:35;;;;;;;12.05;5.07;;;14.30;86.80;;;;;;5097769;28;20026;-73
2023/05/19 11:09:07;;;;;;;9.73;5.20;;;14.30;85.90;;;;;;5096683;28;20404;-74
2023/05/19 11:11:50;;;;;;;9.95;4.60;;;14.20;86.50;;;;;;5073905;28;20417;-74
2023/05/19 11:14:26;;;;;;;12.88;4.60;;;14.40;86.50;;;;;;5088272;28;20062;-74
2023/05/19 11:16:57;;;;;;;10.35;5.00;;;14.60;85.90;;;;;;5089447;28;20088;-73
2023/05/19 11:19:30;;;;;;;13.23;5.68;;;14.70;85.50;;;;;;5089619;28;20388;-73
2023/05/19 11:22:09;;;;;;;8.52;4.55;;;14.40;85.80;;;;;;5083713;28;20387;-73
2023/05/19 11:24:43;;;;;;;13.15;5.00;;;14.40;86.90;;;;;;5090647;28;20055;-74
2023/05/19 11:27:31;;;;;;;9.23;4.50;;;14.60;86.70;;;;;;5093923;28;20119;-74
2023/05/19 11:30:13;;;;;;;15.00;5.70;;;14.80;84.50;;;;;;5087801;28;20026;-74
2023/05/19 11:32:41;;;;;;;11.88;4.95;;;14.90;84.20;;;;;;5092249;28;20021;-74
2023/05/19 11:35:08;;;;;;;15.48;5.20;;;14.60;85.50;;;;;;5089834;28;20031;-74
2023/05/19 11:37:34;;;;;;;11.10;4.78;;;14.50;86.00;;;;;;5089720;28;20139;-73
2023/05/19 11:40:07;;;;;;;15.45;5.95;;;14.70;85.90;;;;;;5081275;28;20036;-73
2023/05/19 11:42:34;;;;;;;9.68;5.00;;;14.60;86.80;;;;;;5094457;28;20024;-73
2023/05/19 11:45:00;;;;;;;14.48;4.95;;;14.80;85.90;;;;;;5077110;28;20032;-74
2023/05/19 11:47:26;;;;;;;10.52;4.80;;;14.60;85.50;;;;;;5092118;28;20038;-74
2023/05/19 11:49:53;;;;;;;12.25;5.32;;;13.90;86.40;;;;;;5089797;28;20373;-74
2023/05/19 11:52:29;;;;;;;14.93;4.90;;;13.60;88.00;;;;;;5092105;28;20125;-73
2023/05/19 11:54:59;;;;;;;12.20;5.18;;;13.50;88.60;;;;;;5094537;28;20047;-74
2023/05/19 11:57:25;;;;;;;12.18;5.30;;;13.50;89.20;;;;;;5094262;28;20028;-74
2023/05/19 11:59:52;;;;;;;14.13;5.28;;;14.00;86.90;;;;;;5096025;28;20075;-74
2023/05/19 12:02:19;;;;;;;11.10;4.50;;;14.20;87.00;;;;;;5077251;28;20112;-74
2023/05/19 12:04:49;;;;;;;10.45;4.40;;;14.20;86.40;;;;;;5075937;28;20190;-74
2023/05/19 12:07:18;;;;;;;11.75;4.70;;;14.50;87.20;;;;;;5095938;28;20020;-74
2023/05/19 12:09:45;;;;;;;9.88;4.57;;;14.90;86.10;;;;;;5095638;28;20609;-74
2023/05/19 12:12:16;;;;;;;11.48;5.38;;;14.80;85.40;;;;;;5074996;28;20029;-74
2023/05/19 12:14:42;;;;;;;12.02;5.03;;;14.80;85.00;;;;;;5078341;28;20382;-73
2023/05/19 12:17:22;;;;;;;12.00;4.75;;;14.70;85.00;;;;;;5076406;28;20104;-74
2023/05/19 12:19:48;;;;;;;9.52;4.38;;;14.80;85.40;;;;;;5058655;28;20356;-74
2023/05/19 12:22:15;;;;;;;11.05;4.72;;;14.90;84.70;;;;;;5058270;28;20028;-74
2023/05/19 12:24:42;;;;;;;9.93;3.90;;;15.00;84.50;;;;;;5074995;28;20025;-74
2023/05/19 12:27:15;;;;;;;9.38;4.20;;;15.20;83.90;;;;;;5081909;28;20032;-74
2023/05/19 12:29:41;;;;;;;13.37;5.23;;;15.30;83.70;;;;;;5072296;28;20059;-74
2023/05/19 12:32:07;;;;;;;9.93;4.53;;;15.00;83.50;;;;;;5077702;28;20052;-74
2023/05/19 12:34:37;;;;;;;12.63;4.47;;;14.90;84.40;;;;;;5078238;28;20336;-74
2023/05/19 12:37:03;;;;;;;10.85;4.63;;;15.00;84.30;;;;;;5095882;28;20047;-74
2023/05/19 12:39:29;;;;;;;8.82;4.25;;;14.80;84.40;;;;;;5093324;28;20066;-74
2023/05/19 12:42:17;;;;;;;11.57;4.90;;;14.40;84.90;;;;;;5087641;28;20067;-74
2023/05/19 12:44:51;;;;;;;9.52;4.63;;;14.20;86.10;;;;;;5095018;28;20413;-75
2023/05/19 12:47:18;;;;;;;9.77;4.50;;;14.60;85.80;;;;;;5095873;28;20028;-74
2023/05/19 12:50:05;;;;;;;14.07;5.43;;;15.00;84.60;;;;;;5095803;28;20405;-74
2023/05/19 12:52:34;;;;;;;12.13;5.43;;;15.10;84.00;;;;;;5077802;28;20028;-74